Terminal Aerodrome Forecast
Issued by NWS Brownsville, TX

Home | Current Version | Previous Version | Text Only | Print | Product List | Glossary On
Versions: 1 2 3 4 5 6 7 8 9 10 11 12 13 14 15
000
FTUS44 KBRO 161123
TAFHRL
TAF
KHRL 161123Z 1612/1712 15012KT P6SM FEW025 WS010/18040KT
     FM161600 17017G25KT P6SM SCT040 BKN250
     FM170000 15010KT P6SM BKN025=

USA.gov is the U.S. government's official web portal to all federal, state and local government web resources and services.